Delta Virtual Airport Information Service

Lagos Murtala Mohammed Airport

ICAO: DNMM Country: Nigeria
Latitude: 6.57737 Longitude: 3.32116
Latest Arrival : KLM587 (1) (EHAM-DNMM) Latest Departure : DAL215 (DNMM-KJFK)


WX CaptureLIVE
Data provided by noaa.gov | Fetched at 15:01:48

METAR : DNMM 151900Z 32005KT 9999 SCT010 26/23 Q1012 NOSIG

TAF : DNMM 151700Z 1518/1624 VRB02KT 9999 SCT010 PROB30 TEMPO 1604/1608 5000 -RA BKN008 BECMG 1609/1611 23010KT BKN013 TEMPO 1612/1615 BKN013 FEW020CB BECMG 1618/1620 VRB02KT SCT010


Runway Data for DNMM
Data provided by openaviationdata.com

Runway ID Mag Var Hdg Length Elevation Surface ILS Freq ILS Id ILS Slope
01L -5 12761 ft 84 ft Asphalt 109.3 ILC 3
01R -5 9050 ft 84 ft Tarmac 110.3 ILO 2
19L -5 185° 9050 ft 84 ft Tarmac 110.3 ILA 3
19R -5 184° 12761 ft 84 ft Asphalt 108.1 ILB 3

Lagos Murtala Mohammed Airport, Nigeria
Use only for reference purposes



Not for navigational purposes.